sensor_id;sensor_type;location;lat;lon;timestamp;pressure;altitude;pressure_sealevel;temperature;humidity
44297;BME280;51842;47.450;8.654;2023-03-18T00:00:13;95170.44;;;5.65;90.21
44297;BME280;51842;47.450;8.654;2023-03-18T00:02:41;95171.47;;;5.64;90.34
44297;BME280;51842;47.450;8.654;2023-03-18T00:05:09;95180.53;;;5.68;90.46
44297;BME280;51842;47.450;8.654;2023-03-18T00:07:36;95177.63;;;5.69;90.33
44297;BME280;51842;47.450;8.654;2023-03-18T00:10:05;95181.91;;;5.70;90.42
44297;BME280;51842;47.450;8.654;2023-03-18T00:12:32;95189.00;;;5.70;90.58
44297;BME280;51842;47.450;8.654;2023-03-18T00:14:59;95189.56;;;5.72;90.31
44297;BME280;51842;47.450;8.654;2023-03-18T00:17:25;95187.50;;;5.74;90.71
44297;BME280;51842;47.450;8.654;2023-03-18T00:19:51;95197.31;;;5.78;90.31
44297;BME280;51842;47.450;8.654;2023-03-18T00:22:17;95192.03;;;5.78;90.42
44297;BME280;51842;47.450;8.654;2023-03-18T00:24:44;95194.97;;;5.82;90.08
44297;BME280;51842;47.450;8.654;2023-03-18T00:27:10;95202.19;;;5.87;89.88
44297;BME280;51842;47.450;8.654;2023-03-18T00:29:35;95207.34;;;5.93;89.86
44297;BME280;51842;47.450;8.654;2023-03-18T00:32:02;95202.34;;;5.97;89.71
44297;BME280;51842;47.450;8.654;2023-03-18T00:34:28;95201.31;;;5.98;90.14
44297;BME280;51842;47.450;8.654;2023-03-18T00:36:54;95202.06;;;5.93;89.91
44297;BME280;51842;47.450;8.654;2023-03-18T00:39:25;95201.78;;;5.95;89.87
44297;BME280;51842;47.450;8.654;2023-03-18T00:41:56;95200.78;;;5.96;90.04
44297;BME280;51842;47.450;8.654;2023-03-18T00:44:23;95203.16;;;5.97;89.57
44297;BME280;51842;47.450;8.654;2023-03-18T00:46:52;95210.78;;;5.94;89.73
44297;BME280;51842;47.450;8.654;2023-03-18T00:49:18;95203.91;;;5.93;90.19
44297;BME280;51842;47.450;8.654;2023-03-18T00:51:45;95212.03;;;5.91;90.36
44297;BME280;51842;47.450;8.654;2023-03-18T00:54:14;95215.72;;;5.90;90.01
44297;BME280;51842;47.450;8.654;2023-03-18T00:56:44;95216.78;;;5.89;89.68
44297;BME280;51842;47.450;8.654;2023-03-18T00:59:10;95213.78;;;5.86;89.99
44297;BME280;51842;47.450;8.654;2023-03-18T01:01:36;95212.13;;;5.79;90.42
44297;BME280;51842;47.450;8.654;2023-03-18T01:04:04;95207.88;;;5.78;90.49
44297;BME280;51842;47.450;8.654;2023-03-18T01:06:35;95208.94;;;5.77;90.30
44297;BME280;51842;47.450;8.654;2023-03-18T01:09:06;95203.56;;;5.72;90.39
44297;BME280;51842;47.450;8.654;2023-03-18T01:11:34;95205.69;;;5.70;90.30
44297;BME280;51842;47.450;8.654;2023-03-18T01:14:01;95205.09;;;5.68;90.29
44297;BME280;51842;47.450;8.654;2023-03-18T01:16:28;95198.94;;;5.63;90.32
44297;BME280;51842;47.450;8.654;2023-03-18T01:18:54;95202.06;;;5.60;90.35
44297;BME280;51842;47.450;8.654;2023-03-18T01:21:21;95201.28;;;5.59;90.16
44297;BME280;51842;47.450;8.654;2023-03-18T01:23:47;95204.41;;;5.56;89.95
44297;BME280;51842;47.450;8.654;2023-03-18T01:26:14;95200.97;;;5.55;89.93
44297;BME280;51842;47.450;8.654;2023-03-18T01:28:41;95203.03;;;5.53;89.38
44297;BME280;51842;47.450;8.654;2023-03-18T01:31:08;95197.44;;;5.50;89.30
44297;BME280;51842;47.450;8.654;2023-03-18T01:33:35;95197.13;;;5.46;88.91
44297;BME280;51842;47.450;8.654;2023-03-18T01:36:02;95199.50;;;5.48;89.07
44297;BME280;51842;47.450;8.654;2023-03-18T01:38:30;95200.47;;;5.42;88.96
44297;BME280;51842;47.450;8.654;2023-03-18T01:40:59;95197.22;;;5.34;89.24
44297;BME280;51842;47.450;8.654;2023-03-18T01:43:33;95198.72;;;5.30;89.56
44297;BME280;51842;47.450;8.654;2023-03-18T01:46:31;95194.81;;;5.33;89.20
44297;BME280;51842;47.450;8.654;2023-03-18T01:49:04;95197.13;;;5.29;89.06
44297;BME280;51842;47.450;8.654;2023-03-18T01:51:31;95195.59;;;5.17;89.46
44297;BME280;51842;47.450;8.654;2023-03-18T01:54:04;95191.13;;;5.17;89.65
44297;BME280;51842;47.450;8.654;2023-03-18T01:56:35;95194.81;;;5.16;89.36
44297;BME280;51842;47.450;8.654;2023-03-18T01:59:06;95193.44;;;5.14;88.86
44297;BME280;51842;47.450;8.654;2023-03-18T02:04:17;95184.88;;;5.06;89.18
44297;BME280;51842;47.450;8.654;2023-03-18T02:06:43;95186.41;;;5.02;89.47
44297;BME280;51842;47.450;8.654;2023-03-18T02:09:11;95188.72;;;4.99;89.92
44297;BME280;51842;47.450;8.654;2023-03-18T02:11:44;95180.72;;;4.94;90.30
44297;BME280;51842;47.450;8.654;2023-03-18T02:14:13;95191.09;;;4.83;91.28
44297;BME280;51842;47.450;8.654;2023-03-18T02:17:08;95185.34;;;4.86;91.21
44297;BME280;51842;47.450;8.654;2023-03-18T02:23:02;95203.41;;;4.78;91.33
44297;BME280;51842;47.450;8.654;2023-03-18T02:28:28;95184.13;;;4.77;90.78
44297;BME280;51842;47.450;8.654;2023-03-18T02:31:07;95183.97;;;4.67;91.52
44297;BME280;51842;47.450;8.654;2023-03-18T02:33:37;95198.16;;;4.66;92.17
44297;BME280;51842;47.450;8.654;2023-03-18T02:36:22;95198.63;;;4.63;92.10
44297;BME280;51842;47.450;8.654;2023-03-18T02:38:49;95197.69;;;4.69;91.29
44297;BME280;51842;47.450;8.654;2023-03-18T02:41:35;95195.22;;;4.62;91.71
44297;BME280;51842;47.450;8.654;2023-03-18T02:44:03;95182.38;;;4.54;92.14
44297;BME280;51842;47.450;8.654;2023-03-18T02:47:03;95188.38;;;4.50;92.60
44297;BME280;51842;47.450;8.654;2023-03-18T02:49:30;95185.28;;;4.53;92.47
44297;BME280;51842;47.450;8.654;2023-03-18T02:51:57;95185.53;;;4.51;92.55
44297;BME280;51842;47.450;8.654;2023-03-18T02:54:28;95183.56;;;4.47;92.48
44297;BME280;51842;47.450;8.654;2023-03-18T02:56:56;95181.41;;;4.44;92.67
44297;BME280;51842;47.450;8.654;2023-03-18T02:59:23;95186.34;;;4.40;93.09
44297;BME280;51842;47.450;8.654;2023-03-18T03:01:53;95183.38;;;4.36;93.20
44297;BME280;51842;47.450;8.654;2023-03-18T03:04:23;95186.25;;;4.35;92.88
44297;BME280;51842;47.450;8.654;2023-03-18T03:06:53;95185.34;;;4.29;92.97
44297;BME280;51842;47.450;8.654;2023-03-18T03:09:20;95181.13;;;4.28;93.18
44297;BME280;51842;47.450;8.654;2023-03-18T03:11:48;95184.13;;;4.20;93.70
44297;BME280;51842;47.450;8.654;2023-03-18T03:14:16;95192.50;;;4.17;93.81
44297;BME280;51842;47.450;8.654;2023-03-18T03:16:43;95187.00;;;4.18;93.60
44297;BME280;51842;47.450;8.654;2023-03-18T03:19:09;95191.13;;;4.14;93.40
44297;BME280;51842;47.450;8.654;2023-03-18T03:21:35;95199.50;;;4.11;94.03
44297;BME280;51842;47.450;8.654;2023-03-18T03:24:06;95190.81;;;4.11;94.42
44297;BME280;51842;47.450;8.654;2023-03-18T03:26:32;95198.13;;;4.09;94.31
44297;BME280;51842;47.450;8.654;2023-03-18T03:28:59;95203.63;;;4.07;94.33
44297;BME280;51842;47.450;8.654;2023-03-18T03:31:25;95205.47;;;4.07;94.36
44297;BME280;51842;47.450;8.654;2023-03-18T03:33:52;95198.59;;;4.06;94.74
44297;BME280;51842;47.450;8.654;2023-03-18T03:36:18;95200.09;;;4.02;94.56
44297;BME280;51842;47.450;8.654;2023-03-18T03:38:45;95207.91;;;3.97;95.67
44297;BME280;51842;47.450;8.654;2023-03-18T03:41:12;95197.69;;;4.00;95.10
44297;BME280;51842;47.450;8.654;2023-03-18T03:43:41;95194.59;;;4.03;94.05
44297;BME280;51842;47.450;8.654;2023-03-18T03:46:09;95203.34;;;3.92;94.13
44297;BME280;51842;47.450;8.654;2023-03-18T03:48:36;95200.69;;;3.92;94.56
44297;BME280;51842;47.450;8.654;2023-03-18T03:51:03;95208.59;;;3.92;94.67
44297;BME280;51842;47.450;8.654;2023-03-18T03:53:31;95204.25;;;3.86;94.60
44297;BME280;51842;47.450;8.654;2023-03-18T03:55:56;95200.59;;;3.87;94.46
44297;BME280;51842;47.450;8.654;2023-03-18T03:58:23;95206.91;;;3.86;94.38
44297;BME280;51842;47.450;8.654;2023-03-18T04:00:49;95211.81;;;3.82;94.27
44297;BME280;51842;47.450;8.654;2023-03-18T04:03:15;95207.47;;;3.76;94.53
44297;BME280;51842;47.450;8.654;2023-03-18T04:05:41;95195.31;;;3.75;94.50
44297;BME280;51842;47.450;8.654;2023-03-18T04:08:08;95205.84;;;3.75;94.03
44297;BME280;51842;47.450;8.654;2023-03-18T04:10:34;95208.16;;;3.71;94.41
44297;BME280;51842;47.450;8.654;2023-03-18T04:13:03;95204.72;;;3.59;95.70
44297;BME280;51842;47.450;8.654;2023-03-18T04:15:30;95203.94;;;3.59;95.43
44297;BME280;51842;47.450;8.654;2023-03-18T04:17:56;95207.34;;;3.59;94.79
44297;BME280;51842;47.450;8.654;2023-03-18T04:20:21;95214.34;;;3.54;94.97
44297;BME280;51842;47.450;8.654;2023-03-18T04:22:47;95213.00;;;3.51;95.48
44297;BME280;51842;47.450;8.654;2023-03-18T04:25:14;95209.78;;;3.49;95.31
44297;BME280;51842;47.450;8.654;2023-03-18T04:27:41;95205.75;;;3.46;95.38
44297;BME280;51842;47.450;8.654;2023-03-18T04:30:12;95211.28;;;3.45;96.07
44297;BME280;51842;47.450;8.654;2023-03-18T04:32:38;95205.75;;;3.46;96.24
44297;BME280;51842;47.450;8.654;2023-03-18T04:35:05;95214.69;;;3.45;96.35
44297;BME280;51842;47.450;8.654;2023-03-18T04:37:31;95214.13;;;3.43;96.56
44297;BME280;51842;47.450;8.654;2023-03-18T04:40:00;95213.06;;;3.44;96.27
44297;BME280;51842;47.450;8.654;2023-03-18T04:42:26;95216.28;;;3.46;96.28
44297;BME280;51842;47.450;8.654;2023-03-18T04:44:52;95216.09;;;3.48;95.38
44297;BME280;51842;47.450;8.654;2023-03-18T04:47:18;95223.16;;;3.47;95.42
44297;BME280;51842;47.450;8.654;2023-03-18T04:49:44;95220.97;;;3.44;94.63
44297;BME280;51842;47.450;8.654;2023-03-18T04:52:10;95216.06;;;3.36;95.63
44297;BME280;51842;47.450;8.654;2023-03-18T04:54:36;95213.66;;;3.35;94.89
44297;BME280;51842;47.450;8.654;2023-03-18T04:57:04;95216.72;;;3.32;94.43
44297;BME280;51842;47.450;8.654;2023-03-18T04:59:31;95212.47;;;3.19;95.45
44297;BME280;51842;47.450;8.654;2023-03-18T05:01:57;95205.72;;;3.11;95.73
44297;BME280;51842;47.450;8.654;2023-03-18T05:06:57;95210.75;;;3.13;95.11
44297;BME280;51842;47.450;8.654;2023-03-18T05:09:23;95215.78;;;3.03;96.06
44297;BME280;51842;47.450;8.654;2023-03-18T05:11:50;95212.66;;;2.94;96.08
44297;BME280;51842;47.450;8.654;2023-03-18T05:14:16;95209.03;;;2.95;96.16
44297;BME280;51842;47.450;8.654;2023-03-18T05:16:41;95204.22;;;2.92;96.55
44297;BME280;51842;47.450;8.654;2023-03-18T05:19:08;95209.69;;;2.90;96.01
44297;BME280;51842;47.450;8.654;2023-03-18T05:21:35;95215.28;;;2.82;96.90
44297;BME280;51842;47.450;8.654;2023-03-18T05:24:01;95206.00;;;2.80;96.75
44297;BME280;51842;47.450;8.654;2023-03-18T05:26:27;95212.41;;;2.84;96.96
44297;BME280;51842;47.450;8.654;2023-03-18T05:28:54;95210.81;;;2.83;96.53
44297;BME280;51842;47.450;8.654;2023-03-18T05:31:20;95220.63;;;2.75;96.56
44297;BME280;51842;47.450;8.654;2023-03-18T05:33:46;95212.38;;;2.72;97.14
44297;BME280;51842;47.450;8.654;2023-03-18T05:36:13;95204.03;;;2.75;97.31
44297;BME280;51842;47.450;8.654;2023-03-18T05:38:39;95202.22;;;2.75;96.97
44297;BME280;51842;47.450;8.654;2023-03-18T05:41:05;95208.75;;;2.73;97.39
44297;BME280;51842;47.450;8.654;2023-03-18T05:43:31;95205.88;;;2.74;97.57
44297;BME280;51842;47.450;8.654;2023-03-18T05:45:57;95202.78;;;2.77;97.21
44297;BME280;51842;47.450;8.654;2023-03-18T05:48:24;95196.50;;;2.78;97.39
44297;BME280;51842;47.450;8.654;2023-03-18T05:50:50;95201.09;;;2.83;97.37
44297;BME280;51842;47.450;8.654;2023-03-18T05:53:17;95200.66;;;2.86;97.39
44297;BME280;51842;47.450;8.654;2023-03-18T05:55:43;95199.16;;;2.90;97.09
44297;BME280;51842;47.450;8.654;2023-03-18T05:58:09;95201.13;;;2.95;97.13
44297;BME280;51842;47.450;8.654;2023-03-18T06:00:36;95199.31;;;2.95;97.77
44297;BME280;51842;47.450;8.654;2023-03-18T06:03:03;95203.41;;;3.03;97.11
44297;BME280;51842;47.450;8.654;2023-03-18T06:05:29;95206.19;;;3.08;96.47
44297;BME280;51842;47.450;8.654;2023-03-18T06:07:57;95208.56;;;3.10;96.65
44297;BME280;51842;47.450;8.654;2023-03-18T06:10:24;95206.53;;;3.12;96.68
44297;BME280;51842;47.450;8.654;2023-03-18T06:12:52;95209.28;;;3.17;96.54
44297;BME280;51842;47.450;8.654;2023-03-18T06:15:20;95210.44;;;3.21;96.27
44297;BME280;51842;47.450;8.654;2023-03-18T06:17:47;95211.56;;;3.25;96.33
44297;BME280;51842;47.450;8.654;2023-03-18T06:20:14;95210.47;;;3.33;96.29
44297;BME280;51842;47.450;8.654;2023-03-18T06:22:41;95214.56;;;3.40;95.85
44297;BME280;51842;47.450;8.654;2023-03-18T06:25:08;95215.16;;;3.42;95.48
44297;BME280;51842;47.450;8.654;2023-03-18T06:27:34;95217.09;;;3.47;95.71
44297;BME280;51842;47.450;8.654;2023-03-18T06:30:01;95223.28;;;3.53;96.12
44297;BME280;51842;47.450;8.654;2023-03-18T06:32:30;95223.75;;;3.61;96.26
44297;BME280;51842;47.450;8.654;2023-03-18T06:34:57;95224.75;;;3.72;95.46
44297;BME280;51842;47.450;8.654;2023-03-18T06:37:23;95219.03;;;3.75;95.47
44297;BME280;51842;47.450;8.654;2023-03-18T06:39:49;95228.31;;;3.78;96.10
44297;BME280;51842;47.450;8.654;2023-03-18T06:42:15;95223.25;;;3.88;95.79
44297;BME280;51842;47.450;8.654;2023-03-18T06:44:42;95221.75;;;4.04;95.00
44297;BME280;51842;47.450;8.654;2023-03-18T06:47:17;95224.47;;;4.21;93.70
44297;BME280;51842;47.450;8.654;2023-03-18T06:49:43;95230.53;;;4.33;93.20
44297;BME280;51842;47.450;8.654;2023-03-18T06:52:09;95228.19;;;4.48;93.48
44297;BME280;51842;47.450;8.654;2023-03-18T06:54:35;95226.19;;;4.67;93.88
44297;BME280;51842;47.450;8.654;2023-03-18T06:57:01;95225.72;;;4.87;93.38
44297;BME280;51842;47.450;8.654;2023-03-18T06:59:27;95224.47;;;5.06;93.34
44297;BME280;51842;47.450;8.654;2023-03-18T07:01:53;95229.78;;;5.23;92.30
44297;BME280;51842;47.450;8.654;2023-03-18T07:04:19;95223.28;;;5.48;91.78
44297;BME280;51842;47.450;8.654;2023-03-18T07:06:45;95223.91;;;5.72;91.28
44297;BME280;51842;47.450;8.654;2023-03-18T07:09:11;95221.75;;;6.02;91.09
44297;BME280;51842;47.450;8.654;2023-03-18T07:11:39;95226.47;;;6.44;89.71
44297;BME280;51842;47.450;8.654;2023-03-18T07:14:05;95234.66;;;6.92;86.91
44297;BME280;51842;47.450;8.654;2023-03-18T07:16:32;95230.88;;;7.42;81.11
44297;BME280;51842;47.450;8.654;2023-03-18T07:18:58;95239.00;;;8.00;80.31
44297;BME280;51842;47.450;8.654;2023-03-18T07:21:25;95240.91;;;8.57;74.18
44297;BME280;51842;47.450;8.654;2023-03-18T07:23:52;95238.41;;;9.18;71.56
44297;BME280;51842;47.450;8.654;2023-03-18T07:26:20;95237.09;;;9.67;67.19
44297;BME280;51842;47.450;8.654;2023-03-18T07:28:47;95239.19;;;10.11;64.80
44297;BME280;51842;47.450;8.654;2023-03-18T07:31:13;95234.81;;;10.56;62.81
44297;BME280;51842;47.450;8.654;2023-03-18T07:33:39;95241.25;;;11.04;60.63
44297;BME280;51842;47.450;8.654;2023-03-18T07:36:05;95252.69;;;11.49;58.28
44297;BME280;51842;47.450;8.654;2023-03-18T07:38:32;95252.63;;;11.94;57.00
44297;BME280;51842;47.450;8.654;2023-03-18T07:40:58;95250.19;;;12.26;54.90
44297;BME280;51842;47.450;8.654;2023-03-18T07:43:24;95246.66;;;12.55;54.02
44297;BME280;51842;47.450;8.654;2023-03-18T07:45:50;95255.66;;;12.64;53.43
44297;BME280;51842;47.450;8.654;2023-03-18T07:48:16;95254.94;;;12.78;53.03
44297;BME280;51842;47.450;8.654;2023-03-18T07:50:42;95257.69;;;13.15;51.88
44297;BME280;51842;47.450;8.654;2023-03-18T07:53:08;95261.31;;;13.43;51.12
44297;BME280;51842;47.450;8.654;2023-03-18T07:55:35;95263.75;;;13.78;49.31
44297;BME280;51842;47.450;8.654;2023-03-18T07:58:01;95243.91;;;14.11;48.98
44297;BME280;51842;47.450;8.654;2023-03-18T08:00:27;95251.25;;;14.52;47.81
44297;BME280;51842;47.450;8.654;2023-03-18T08:02:53;95247.28;;;14.77;47.56
44297;BME280;51842;47.450;8.654;2023-03-18T08:05:19;95245.53;;;15.09;46.60
44297;BME280;51842;47.450;8.654;2023-03-18T08:07:47;95247.06;;;15.38;45.81
44297;BME280;51842;47.450;8.654;2023-03-18T08:10:13;95244.47;;;15.46;46.16
44297;BME280;51842;47.450;8.654;2023-03-18T08:12:41;95239.34;;;15.59;45.79
44297;BME280;51842;47.450;8.654;2023-03-18T08:15:08;95237.38;;;15.87;44.23
44297;BME280;51842;47.450;8.654;2023-03-18T08:17:35;95250.84;;;16.18;45.00
44297;BME280;51842;47.450;8.654;2023-03-18T08:20:01;95250.00;;;16.40;44.42
44297;BME280;51842;47.450;8.654;2023-03-18T08:22:26;95247.69;;;16.56;43.88
44297;BME280;51842;47.450;8.654;2023-03-18T08:24:53;95253.56;;;16.66;43.51
44297;BME280;51842;47.450;8.654;2023-03-18T08:27:19;95257.41;;;16.74;42.29
44297;BME280;51842;47.450;8.654;2023-03-18T08:29:45;95256.41;;;17.01;41.34
44297;BME280;51842;47.450;8.654;2023-03-18T08:32:12;95265.09;;;16.98;41.15
44297;BME280;51842;47.450;8.654;2023-03-18T08:34:38;95262.47;;;17.24;39.73
44297;BME280;51842;47.450;8.654;2023-03-18T08:37:04;95256.16;;;17.38;39.36
44297;BME280;51842;47.450;8.654;2023-03-18T08:39:30;95249.50;;;17.70;37.75
44297;BME280;51842;47.450;8.654;2023-03-18T08:41:56;95250.03;;;17.80;38.03
44297;BME280;51842;47.450;8.654;2023-03-18T08:44:24;95252.53;;;18.03;38.53
44297;BME280;51842;47.450;8.654;2023-03-18T08:46:50;95256.00;;;18.12;37.76
44297;BME280;51842;47.450;8.654;2023-03-18T08:49:16;95254.75;;;18.01;38.34
44297;BME280;51842;47.450;8.654;2023-03-18T08:51:43;95254.25;;;18.08;37.05
44297;BME280;51842;47.450;8.654;2023-03-18T08:54:09;95253.19;;;18.56;37.09
44297;BME280;51842;47.450;8.654;2023-03-18T08:56:35;95255.53;;;18.75;36.61
44297;BME280;51842;47.450;8.654;2023-03-18T08:59:01;95258.00;;;18.88;36.30
44297;BME280;51842;47.450;8.654;2023-03-18T09:01:27;95249.00;;;18.76;37.19
44297;BME280;51842;47.450;8.654;2023-03-18T09:03:53;95243.69;;;18.49;35.58
44297;BME280;51842;47.450;8.654;2023-03-18T09:06:22;95244.41;;;18.67;34.89
44297;BME280;51842;47.450;8.654;2023-03-18T09:08:48;95242.34;;;18.64;35.77
44297;BME280;51842;47.450;8.654;2023-03-18T09:11:15;95245.00;;;18.82;34.60
44297;BME280;51842;47.450;8.654;2023-03-18T09:13:42;95241.19;;;19.12;34.89
44297;BME280;51842;47.450;8.654;2023-03-18T09:16:08;95241.16;;;19.21;33.89
44297;BME280;51842;47.450;8.654;2023-03-18T09:18:35;95240.63;;;19.49;34.28
44297;BME280;51842;47.450;8.654;2023-03-18T09:21:03;95240.47;;;19.75;33.69
44297;BME280;51842;47.450;8.654;2023-03-18T09:23:30;95236.38;;;19.69;32.13
44297;BME280;51842;47.450;8.654;2023-03-18T09:25:57;95229.72;;;19.66;32.75
44297;BME280;51842;47.450;8.654;2023-03-18T09:28:24;95224.97;;;19.84;33.56
44297;BME280;51842;47.450;8.654;2023-03-18T09:30:52;95230.44;;;19.96;33.34
44297;BME280;51842;47.450;8.654;2023-03-18T09:33:18;95230.06;;;20.31;33.81
44297;BME280;51842;47.450;8.654;2023-03-18T09:35:45;95232.63;;;20.61;32.66
44297;BME280;51842;47.450;8.654;2023-03-18T09:38:18;95219.53;;;20.63;33.59
44297;BME280;51842;47.450;8.654;2023-03-18T09:41:31;95226.53;;;21.13;33.27
44297;BME280;51842;47.450;8.654;2023-03-18T09:44:34;95224.81;;;21.45;31.33
44297;BME280;51842;47.450;8.654;2023-03-18T09:53:55;95220.06;;;21.82;29.81
44297;BME280;51842;47.450;8.654;2023-03-18T09:56:28;95217.41;;;21.70;30.16
44297;BME280;51842;47.450;8.654;2023-03-18T09:59:39;95214.59;;;21.94;30.66
44297;BME280;51842;47.450;8.654;2023-03-18T10:02:34;95208.63;;;22.17;29.93
44297;BME280;51842;47.450;8.654;2023-03-18T10:05:24;95213.16;;;21.85;30.26
44297;BME280;51842;47.450;8.654;2023-03-18T10:08:14;95215.28;;;21.91;31.08
44297;BME280;51842;47.450;8.654;2023-03-18T10:10:46;95219.00;;;22.15;30.14
44297;BME280;51842;47.450;8.654;2023-03-18T10:13:41;95217.25;;;22.07;29.55
44297;BME280;51842;47.450;8.654;2023-03-18T10:16:24;95211.13;;;22.10;29.58
44297;BME280;51842;47.450;8.654;2023-03-18T10:18:51;95215.41;;;22.39;28.92
44297;BME280;51842;47.450;8.654;2023-03-18T10:21:56;95210.66;;;22.36;29.47
44297;BME280;51842;47.450;8.654;2023-03-18T10:24:54;95200.97;;;22.67;28.40
44297;BME280;51842;47.450;8.654;2023-03-18T10:30:48;95205.00;;;22.73;27.72
44297;BME280;51842;47.450;8.654;2023-03-18T10:34:00;95205.75;;;22.89;28.79
44297;BME280;51842;47.450;8.654;2023-03-18T10:39:31;95191.31;;;23.01;28.39
44297;BME280;51842;47.450;8.654;2023-03-18T10:42:21;95194.59;;;23.26;26.90
44297;BME280;51842;47.450;8.654;2023-03-18T10:44:50;95186.53;;;23.49;26.92
44297;BME280;51842;47.450;8.654;2023-03-18T10:47:27;95179.69;;;23.74;27.37
44297;BME280;51842;47.450;8.654;2023-03-18T10:50:49;95180.00;;;23.69;26.77
44297;BME280;51842;47.450;8.654;2023-03-18T10:53:33;95174.25;;;23.74;26.83
44297;BME280;51842;47.450;8.654;2023-03-18T10:56:12;95182.59;;;23.46;27.81
44297;BME280;51842;47.450;8.654;2023-03-18T10:58:41;95186.59;;;23.52;27.04
44297;BME280;51842;47.450;8.654;2023-03-18T11:01:13;95179.28;;;23.92;27.53
44297;BME280;51842;47.450;8.654;2023-03-18T11:03:58;95180.56;;;24.21;27.04
44297;BME280;51842;47.450;8.654;2023-03-18T11:09:31;95174.19;;;23.90;27.61
44297;BME280;51842;47.450;8.654;2023-03-18T11:12:27;95169.94;;;23.93;26.97
44297;BME280;51842;47.450;8.654;2023-03-18T11:14:54;95166.53;;;23.76;27.02
44297;BME280;51842;47.450;8.654;2023-03-18T11:17:30;95162.63;;;23.97;26.32
44297;BME280;51842;47.450;8.654;2023-03-18T11:22:49;95150.53;;;24.37;26.81
44297;BME280;51842;47.450;8.654;2023-03-18T11:25:24;95153.25;;;24.60;26.04
44297;BME280;51842;47.450;8.654;2023-03-18T11:28:19;95147.78;;;24.83;25.56
44297;BME280;51842;47.450;8.654;2023-03-18T11:30:56;95134.88;;;24.53;26.19
44297;BME280;51842;47.450;8.654;2023-03-18T11:33:31;95135.41;;;24.62;27.25
44297;BME280;51842;47.450;8.654;2023-03-18T11:36:15;95133.84;;;24.88;26.58
44297;BME280;51842;47.450;8.654;2023-03-18T11:38:43;95124.66;;;24.46;26.17
44297;BME280;51842;47.450;8.654;2023-03-18T11:41:26;95131.53;;;24.17;27.44
44297;BME280;51842;47.450;8.654;2023-03-18T11:44:15;95117.91;;;24.40;26.55
44297;BME280;51842;47.450;8.654;2023-03-18T11:47:09;95118.56;;;24.80;27.17
44297;BME280;51842;47.450;8.654;2023-03-18T11:49:37;95116.09;;;24.25;26.53
44297;BME280;51842;47.450;8.654;2023-03-18T11:52:49;95114.84;;;24.19;26.24
44297;BME280;51842;47.450;8.654;2023-03-18T11:58:35;95113.41;;;24.48;26.66
44297;BME280;51842;47.450;8.654;2023-03-18T12:04:05;95109.94;;;24.28;25.83
44297;BME280;51842;47.450;8.654;2023-03-18T12:23:02;95089.88;;;25.16;25.29
44297;BME280;51842;47.450;8.654;2023-03-18T12:26:15;95097.59;;;25.10;25.05
44297;BME280;51842;47.450;8.654;2023-03-18T12:35:49;95079.16;;;24.47;25.31
44297;BME280;51842;47.450;8.654;2023-03-18T12:50:31;95076.94;;;25.39;24.59
44297;BME280;51842;47.450;8.654;2023-03-18T12:53:17;95063.31;;;24.07;25.60
44297;BME280;51842;47.450;8.654;2023-03-18T12:55:54;95067.09;;;23.37;26.49
44297;BME280;51842;47.450;8.654;2023-03-18T12:58:38;95059.28;;;23.74;27.03
44297;BME280;51842;47.450;8.654;2023-03-18T13:01:16;95061.72;;;23.79;27.87
44297;BME280;51842;47.450;8.654;2023-03-18T13:04:11;95062.59;;;22.70;28.37
44297;BME280;51842;47.450;8.654;2023-03-18T13:06:53;95066.19;;;22.74;28.15
44297;BME280;51842;47.450;8.654;2023-03-18T13:09:56;95064.16;;;22.36;28.18
44297;BME280;51842;47.450;8.654;2023-03-18T13:12:44;95066.84;;;22.87;28.28
44297;BME280;51842;47.450;8.654;2023-03-18T13:18:30;95072.69;;;23.24;29.16
44297;BME280;51842;47.450;8.654;2023-03-18T13:21:00;95070.44;;;22.40;28.76
44297;BME280;51842;47.450;8.654;2023-03-18T13:27:19;95059.59;;;23.11;29.07
44297;BME280;51842;47.450;8.654;2023-03-18T13:30:34;95060.59;;;23.02;29.51
44297;BME280;51842;47.450;8.654;2023-03-18T13:42:48;95051.91;;;21.94;29.88
44297;BME280;51842;47.450;8.654;2023-03-18T13:45:32;95037.47;;;22.38;29.36
44297;BME280;51842;47.450;8.654;2023-03-18T13:48:16;95046.59;;;22.65;28.56
44297;BME280;51842;47.450;8.654;2023-03-18T13:50:47;95049.31;;;22.84;29.75
44297;BME280;51842;47.450;8.654;2023-03-18T13:53:32;95047.72;;;22.99;29.30
44297;BME280;51842;47.450;8.654;2023-03-18T13:56:22;95040.28;;;23.54;28.83
44297;BME280;51842;47.450;8.654;2023-03-18T13:58:50;95043.25;;;23.69;27.53
44297;BME280;51842;47.450;8.654;2023-03-18T14:01:34;95029.13;;;23.40;27.62
44297;BME280;51842;47.450;8.654;2023-03-18T14:04:47;95033.69;;;23.55;28.17
44297;BME280;51842;47.450;8.654;2023-03-18T14:07:19;95022.31;;;23.69;27.59
44297;BME280;51842;47.450;8.654;2023-03-18T14:17:51;95014.63;;;23.32;28.08
44297;BME280;51842;47.450;8.654;2023-03-18T14:22:56;95013.53;;;23.37;28.86
44297;BME280;51842;47.450;8.654;2023-03-18T14:26:02;94999.25;;;21.95;29.69
44297;BME280;51842;47.450;8.654;2023-03-18T14:28:44;94992.66;;;22.63;29.95
44297;BME280;51842;47.450;8.654;2023-03-18T14:39:41;95003.47;;;24.86;26.38
44297;BME280;51842;47.450;8.654;2023-03-18T14:42:42;94991.19;;;25.00;26.00
44297;BME280;51842;47.450;8.654;2023-03-18T14:45:23;94990.38;;;24.96;27.60
44297;BME280;51842;47.450;8.654;2023-03-18T14:47:56;94990.22;;;24.85;26.34
44297;BME280;51842;47.450;8.654;2023-03-18T14:50:36;94993.78;;;24.59;27.01
44297;BME280;51842;47.450;8.654;2023-03-18T14:56:04;94983.69;;;24.59;26.60
44297;BME280;51842;47.450;8.654;2023-03-18T14:58:33;94989.84;;;24.30;27.10
44297;BME280;51842;47.450;8.654;2023-03-18T15:01:13;95002.56;;;24.22;27.42
44297;BME280;51842;47.450;8.654;2023-03-18T15:03:48;95004.00;;;23.89;27.46
44297;BME280;51842;47.450;8.654;2023-03-18T15:06:24;95002.50;;;23.49;28.70
44297;BME280;51842;47.450;8.654;2023-03-18T15:09:09;94993.84;;;23.21;29.41
44297;BME280;51842;47.450;8.654;2023-03-18T15:11:43;94994.94;;;23.16;28.67
44297;BME280;51842;47.450;8.654;2023-03-18T15:14:24;94996.75;;;22.93;30.21
44297;BME280;51842;47.450;8.654;2023-03-18T15:17:14;94999.75;;;22.87;29.84
44297;BME280;51842;47.450;8.654;2023-03-18T15:19:42;95000.44;;;22.65;29.59